Time,TemperatureF,DewpointF,PressureIn,WindDirection,WindDirectionDegrees,WindSpeedMPH,WindSpeedGustMPH,Humidity,HourlyPrecipIn,Conditions,Clouds,dailyrainin,SoftwareType,DateUTC
2013-05-13 00:10:00,42.8,27.3,30.04,NNW,336,1.0,11.0,54,0.00,,,0.00,VWS V12.07,2013-05-13 04:10:00,
2013-05-13 00:28:00,42.5,27.5,30.03,NNE,22,11.0,14.0,55,0.00,,,0.00,VWS V12.07,2013-05-13 04:28:00,
2013-05-13 00:40:00,42.2,26.8,30.04,NW,310,2.0,10.0,54,0.00,,,0.00,VWS V12.07,2013-05-13 04:40:00,
2013-05-13 00:58:00,41.6,27.5,30.06,NNW,343,2.0,6.0,57,0.00,,,0.00,VWS V12.07,2013-05-13 04:58:00,
2013-05-13 01:10:00,41.3,26.8,30.05,NW,319,3.0,11.0,56,0.00,,,0.00,VWS V12.07,2013-05-13 05:10:00,
2013-05-13 01:28:00,41.3,26.4,30.05,NW,323,2.0,9.0,55,0.00,,,0.00,VWS V12.07,2013-05-13 05:28:00,
2013-05-13 01:40:00,39.6,27.3,30.05,NW,323,0.0,3.0,61,0.00,,,0.00,VWS V12.07,2013-05-13 05:40:00,
2013-05-13 01:58:00,39.2,28.1,30.05,NW,323,0.0,4.0,64,0.00,,,0.00,VWS V12.07,2013-05-13 05:58:00,
2013-05-13 02:10:00,38.8,26.9,30.05,NW,323,2.0,5.0,62,0.00,,,0.00,VWS V12.07,2013-05-13 06:10:00,
2013-05-13 02:28:00,40.2,26.6,30.04,NNW,338,5.0,17.0,58,0.00,,,0.00,VWS V12.07,2013-05-13 06:28:00,
2013-05-13 02:40:00,40.6,27.0,30.02,WSW,244,3.0,5.0,58,0.00,,,0.00,VWS V12.07,2013-05-13 06:40:00,
2013-05-13 02:58:00,40.3,27.1,30.02,West,277,3.0,10.0,59,0.00,,,0.00,VWS V12.07,2013-05-13 06:58:00,
2013-05-13 03:10:00,39.6,27.3,30.02,WNW,294,6.0,12.0,61,0.00,,,0.00,VWS V12.07,2013-05-13 07:10:00,
2013-05-13 03:28:00,39.9,27.6,30.02,NW,326,4.0,12.0,61,0.00,,,0.00,VWS V12.07,2013-05-13 07:28:00,
2013-05-13 03:40:00,39.3,27.0,30.03,WNW,288,1.0,11.0,61,0.00,,,0.00,VWS V12.07,2013-05-13 07:40:00,
2013-05-13 03:58:00,39.3,27.4,30.04,West,275,6.0,6.0,62,0.00,,,0.00,VWS V12.07,2013-05-13 07:58:00,
2013-05-13 04:10:00,39.1,27.2,30.04,NW,313,0.0,12.0,62,0.00,,,0.00,VWS V12.07,2013-05-13 08:10:00,
2013-05-13 04:28:00,39.1,27.6,30.04,West,275,4.0,12.0,63,0.00,,,0.00,VWS V12.07,2013-05-13 08:28:00,
2013-05-13 04:40:00,38.9,27.4,30.04,West,275,2.0,13.0,63,0.00,,,0.00,VWS V12.07,2013-05-13 08:40:00,
2013-05-13 04:58:00,38.9,26.6,30.05,WNW,289,5.0,18.0,61,0.00,,,0.00,VWS V12.07,2013-05-13 08:58:00,
2013-05-13 05:10:00,38.9,27.4,30.05,WSW,258,5.0,12.0,63,0.00,,,0.00,VWS V12.07,2013-05-13 09:10:00,
2013-05-13 05:28:00,38.9,27.0,30.06,WNW,302,4.0,17.0,62,0.00,,,0.00,VWS V12.07,2013-05-13 09:28:00,
2013-05-13 05:40:00,38.8,26.9,30.06,WSW,252,4.0,11.0,62,0.00,,,0.00,VWS V12.07,2013-05-13 09:40:00,
2013-05-13 05:58:00,38.8,26.9,30.06,NW,325,1.0,12.0,62,0.00,,,0.00,VWS V12.07,2013-05-13 09:58:00,
2013-05-13 06:10:00,38.3,26.8,30.06,WNW,283,4.0,11.0,63,0.00,,,0.00,VWS V12.07,2013-05-13 10:10:00,
2013-05-13 06:28:00,38.3,26.8,30.07,WNW,298,7.0,13.0,63,0.00,,,0.00,VWS V12.07,2013-05-13 10:28:00,
2013-05-13 06:40:00,38.3,27.2,30.07,WNW,295,4.0,9.0,64,0.00,,,0.00,VWS V12.07,2013-05-13 10:40:00,
2013-05-13 06:58:00,38.2,26.7,30.08,WNW,296,0.0,7.0,63,0.00,,,0.00,VWS V12.07,2013-05-13 10:58:00,
2013-05-13 07:10:00,37.9,26.8,30.09,NW,319,7.0,10.0,64,0.00,,,0.00,VWS V12.07,2013-05-13 11:10:00,
2013-05-13 07:28:00,38.5,26.6,30.10,NW,323,2.0,10.0,62,0.00,,,0.00,VWS V12.07,2013-05-13 11:28:00,
2013-05-13 07:40:00,39.8,26.2,30.11,NW,304,3.0,8.0,58,0.00,,,0.00,VWS V12.07,2013-05-13 11:40:00,
2013-05-13 07:58:00,39.9,26.8,30.10,WNW,294,4.0,11.0,59,0.00,,,0.00,VWS V12.07,2013-05-13 11:58:00,
2013-05-13 08:10:00,40.3,26.3,30.10,WNW,282,6.0,10.0,57,0.00,,,0.00,VWS V12.07,2013-05-13 12:10:00,
2013-05-13 08:28:00,40.5,26.9,30.12,WNW,287,2.0,10.0,58,0.00,,,0.00,VWS V12.07,2013-05-13 12:28:00,
2013-05-13 08:40:00,41.6,25.8,30.13,WNW,302,7.0,14.0,53,0.00,,,0.00,VWS V12.07,2013-05-13 12:40:00,
2013-05-13 08:58:00,41.3,25.5,30.12,WNW,300,9.0,19.0,53,0.00,,,0.00,VWS V12.07,2013-05-13 12:58:00,
2013-05-13 09:10:00,42.9,26.0,30.13,WSW,254,4.0,13.0,51,0.00,,,0.00,VWS V12.07,2013-05-13 13:10:00,
2013-05-13 09:28:00,42.3,26.9,30.14,WSW,245,3.0,13.0,54,0.00,,,0.00,VWS V12.07,2013-05-13 13:28:00,
2013-05-13 09:40:00,43.6,27.6,30.14,North,10,4.0,13.0,53,0.00,,,0.00,VWS V12.07,2013-05-13 13:40:00,
2013-05-13 09:58:00,44.2,26.8,30.14,NW,323,2.0,15.0,50,0.00,,,0.00,VWS V12.07,2013-05-13 13:58:00,
2013-05-13 10:10:00,44.9,25.9,30.14,North,350,3.0,13.0,47,0.00,,,0.00,VWS V12.07,2013-05-13 14:10:00,
2013-05-13 10:28:00,45.5,23.8,30.13,NW,323,10.0,16.0,42,0.00,,,0.00,VWS V12.07,2013-05-13 14:28:00,
2013-05-13 10:40:00,45.7,23.9,30.13,North,355,2.0,13.0,42,0.00,,,0.00,VWS V12.07,2013-05-13 14:40:00,
2013-05-13 10:58:00,46.5,25.2,30.14,North,10,7.0,12.0,43,0.00,,,0.00,VWS V12.07,2013-05-13 14:58:00,
2013-05-13 11:10:00,46.2,23.2,30.14,NNW,343,5.0,14.0,40,0.00,,,0.00,VWS V12.07,2013-05-13 15:10:00,
2013-05-13 11:28:00,46.4,22.8,30.15,NNE,16,1.0,12.0,39,0.00,,,0.00,VWS V12.07,2013-05-13 15:28:00,
2013-05-13 11:40:00,47.7,22.7,30.14,NW,321,10.0,12.0,37,0.00,,,0.00,VWS V12.07,2013-05-13 15:40:00,
2013-05-13 11:58:00,47.4,22.5,30.14,NW,307,13.0,18.0,37,0.00,,,0.00,VWS V12.07,2013-05-13 15:58:00,
2013-05-13 12:10:00,48.9,23.8,30.14,NNE,13,7.0,18.0,37,0.00,,,0.00,VWS V12.07,2013-05-13 16:10:00,
2013-05-13 12:28:00,48.9,23.1,30.13,West,263,14.0,16.0,36,0.00,,,0.00,VWS V12.07,2013-05-13 16:28:00,
2013-05-13 12:40:00,49.1,22.0,30.13,NW,310,5.0,14.0,34,0.00,,,0.00,VWS V12.07,2013-05-13 16:40:00,
2013-05-13 12:58:00,49.1,23.3,30.12,NNW,329,8.0,14.0,36,0.00,,,0.00,VWS V12.07,2013-05-13 16:58:00,
2013-05-13 13:10:00,49.8,21.1,30.12,NW,320,4.0,16.0,32,0.00,,,0.00,VWS V12.07,2013-05-13 17:10:00,
2013-05-13 13:28:00,50.1,23.5,30.13,WNW,288,10.0,20.0,35,0.00,,,0.00,VWS V12.07,2013-05-13 17:28:00,
2013-05-13 13:40:00,50.7,26.0,30.12,North,360,6.0,16.0,38,0.00,,,0.00,VWS V12.07,2013-05-13 17:40:00,
2013-05-13 13:58:00,50.2,24.3,30.12,West,279,5.0,19.0,36,0.00,,,0.00,VWS V12.07,2013-05-13 17:58:00,
2013-05-13 14:10:00,51.3,21.7,30.11,NNW,346,11.0,18.0,31,0.00,,,0.00,VWS V12.07,2013-05-13 18:10:00,
2013-05-13 14:28:00,51.6,24.2,30.10,West,270,7.0,22.0,34,0.00,,,0.00,VWS V12.07,2013-05-13 18:28:00,
2013-05-13 14:40:00,51.3,24.6,30.11,NW,310,8.0,16.0,35,0.00,,,0.00,VWS V12.07,2013-05-13 18:40:00,
2013-05-13 14:58:00,51.4,22.5,30.09,NW,312,5.0,15.0,32,0.00,,,0.00,VWS V12.07,2013-05-13 18:58:00,
2013-05-13 15:10:00,50.8,22.8,30.09,WNW,287,11.0,23.0,33,0.00,,,0.00,VWS V12.07,2013-05-13 19:10:00,
2013-05-13 15:28:00,51.3,25.3,30.10,WNW,288,5.0,20.0,36,0.00,,,0.00,VWS V12.07,2013-05-13 19:28:00,
2013-05-13 15:40:00,51.6,24.2,30.09,NW,315,6.0,18.0,34,0.00,,,0.00,VWS V12.07,2013-05-13 19:40:00,
2013-05-13 15:58:00,51.9,24.4,30.08,North,5,11.0,20.0,34,0.00,,,0.00,VWS V12.07,2013-05-13 19:58:00,
2013-05-13 16:10:00,51.1,24.4,30.08,NW,309,8.0,20.0,35,0.00,,,0.00,VWS V12.07,2013-05-13 20:10:00,
2013-05-13 16:28:00,51.6,27.5,30.08,North,351,11.0,18.0,39,0.00,,,0.00,VWS V12.07,2013-05-13 20:28:00,
2013-05-13 16:40:00,51.4,24.0,30.08,WSW,250,5.0,20.0,34,0.00,,,0.00,VWS V12.07,2013-05-13 20:40:00,
2013-05-13 16:58:00,51.9,24.4,30.07,WNW,287,13.0,18.0,34,0.00,,,0.00,VWS V12.07,2013-05-13 20:58:00,
2013-05-13 17:10:00,51.4,24.7,30.07,NW,311,9.0,24.0,35,0.00,,,0.00,VWS V12.07,2013-05-13 21:10:00,
2013-05-13 17:28:00,51.1,25.8,30.08,NNW,337,12.0,22.0,37,0.00,,,0.00,VWS V12.07,2013-05-13 21:28:00,
2013-05-13 17:40:00,50.7,25.4,30.08,NW,309,2.0,15.0,37,0.00,,,0.00,VWS V12.07,2013-05-13 21:40:00,
2013-05-13 17:58:00,50.7,26.0,30.08,NNW,338,4.0,24.0,38,0.00,,,0.00,VWS V12.07,2013-05-13 21:58:00,
2013-05-13 18:10:00,49.8,26.5,30.09,SW,232,0.0,22.0,40,0.00,,,0.00,VWS V12.07,2013-05-13 22:10:00,
2013-05-13 18:28:00,49.9,25.3,30.08,WNW,296,5.0,16.0,38,0.00,,,0.00,VWS V12.07,2013-05-13 22:28:00,
2013-05-13 18:40:00,50.4,25.1,30.09,North,5,11.0,15.0,37,0.00,,,0.00,VWS V12.07,2013-05-13 22:40:00,
2013-05-13 18:58:00,49.9,27.1,30.08,WNW,287,1.0,20.0,41,0.00,,,0.00,VWS V12.07,2013-05-13 22:58:00,
2013-05-13 19:10:00,49.8,26.5,30.08,West,274,3.0,14.0,40,0.00,,,0.00,VWS V12.07,2013-05-13 23:10:00,
2013-05-13 19:28:00,49.9,26.0,30.08,West,271,6.0,11.0,39,0.00,,,0.00,VWS V12.07,2013-05-13 23:28:00,
2013-05-13 19:40:00,49.9,26.0,30.08,WNW,290,3.0,15.0,39,0.00,,,0.00,VWS V12.07,2013-05-13 23:40:00,
2013-05-13 19:58:00,49.6,25.0,30.08,WNW,290,4.0,30.0,38,0.00,,,0.00,VWS V12.07,2013-05-13 23:58:00,
2013-05-13 20:10:00,49.1,24.6,30.09,SW,236,15.0,20.0,38,0.00,,,0.00,VWS V12.07,2013-05-14 00:10:00,
2013-05-13 20:28:00,48.6,24.2,30.08,West,276,6.0,17.0,38,0.00,,,0.00,VWS V12.07,2013-05-14 00:28:00,
2013-05-13 20:40:00,48.0,24.9,30.10,WNW,303,4.0,13.0,40,0.00,,,0.00,VWS V12.07,2013-05-14 00:40:00,
2013-05-13 20:58:00,47.9,24.8,30.11,WNW,302,5.0,16.0,40,0.00,,,0.00,VWS V12.07,2013-05-14 00:58:00,
2013-05-13 21:10:00,46.5,26.3,30.12,West,273,1.0,6.0,45,0.00,,,0.00,VWS V12.07,2013-05-14 01:10:00,
2013-05-13 21:28:00,45.1,27.1,30.11,West,259,3.0,7.0,49,0.00,,,0.00,VWS V12.07,2013-05-14 01:28:00,
2013-05-13 21:40:00,45.2,27.7,30.12,WNW,282,0.0,8.0,50,0.00,,,0.00,VWS V12.07,2013-05-14 01:40:00,
2013-05-13 21:58:00,45.4,25.9,30.12,WNW,299,4.0,13.0,46,0.00,,,0.00,VWS V12.07,2013-05-14 01:58:00,
2013-05-13 22:10:00,44.6,26.1,30.13,NNW,327,3.0,9.0,48,0.00,,,0.00,VWS V12.07,2013-05-14 02:10:00,
2013-05-13 22:28:00,44.5,26.5,30.14,West,277,2.0,7.0,49,0.00,,,0.00,VWS V12.07,2013-05-14 02:28:00,
2013-05-13 22:40:00,44.5,27.5,30.14,NW,314,0.0,9.0,51,0.00,,,0.00,VWS V12.07,2013-05-14 02:40:00,
2013-05-13 22:58:00,44.1,29.0,30.15,NW,315,0.0,4.0,55,0.00,,,0.00,VWS V12.07,2013-05-14 02:58:00,
2013-05-13 23:10:00,42.8,26.4,30.16,NNW,333,0.0,7.0,52,0.00,,,0.00,VWS V12.07,2013-05-14 03:10:00,
2013-05-13 23:28:00,43.1,27.1,30.16,NW,317,0.0,5.0,53,0.00,,,0.00,VWS V12.07,2013-05-14 03:28:00,
2013-05-13 23:40:00,43.2,26.8,30.17,WNW,301,1.0,12.0,52,0.00,,,0.00,VWS V12.07,2013-05-14 03:40:00,
2013-05-13 23:58:00,43.5,28.0,30.17,WNW,302,1.0,6.0,54,0.00,,,0.00,VWS V12.07,2013-05-14 03:58:00,